SBOSBO BUD / LHBP
Speedbird OnlineSpeedbird Online BUD / LHBP

Budapest Liszt Ferenc International Airport
01:36 -6.9°C

Location Budapest, Hungary
Latitude: 47.42976
Longitude: 19.261093
Web Airport Website | Wikipedia
Altitude 151 Meter / 495 Feet
Distance 1,450 KM / 901 Miles
from London.
Time Zone UTC +1 hours (Europe/Budapest)
Codes IATA: BUD
ICAO: LHBP
Currency £1 equals HUF 438.60
Runways
RunwayLength (m)Surface
13L3707Concrete
13R3010Concrete
31L3010Concrete
31R3707Concrete
Radio
TypeDescriptionFrequency
ACCBUDAPEST APP129.7
APPDIRECTOR119.5
APRSApron Guide South122.45
APRWApron Guide West131.55
ATISATIS132.375
CDCDelivery134.55
GNDGND121.9
TWRTWR118.1
Live ATC
METAR LHBP 081430Z 08008KT 9999 FEW047 03/M08 Q1042 NOSIG
TAF TAF LHBP 081115Z 0812/0912 08010KT CAVOK BECMG 0814/0817 08005KT BECMG 0819/0821 VRB03KT
Weather As Of 09 Feb 2023 01:36
Description Clear sky
Wind 2 km/h from North (0°)
Cloud Cover 0%
Precipitation Rain: none, Snow: none
Sunrise 06:58
Sunset 16:55
Lounges Platinum Lounge Schengen Pier, Teminal 2A
Platinum Lounge Non Schengen Pier (Temporarily Closed), Terminal 2B (Non-Schengen)
Rotations During the last 90 days there were
178 flights from LHR
171 flights to LHR



Support Speedbird Online

© 2017-2023 Speedbird Online